EGEC/CAL METAR and TAF weather

Enter ICAO airport designator
Station Type Date Time Source
EGEC METAR 2022/06/28 15:50 UTC NOAA

EGEC 281550Z 16029KT 9999 BKN008 15/13 Q1002


Station Type Date Time Source
EGEC Decoded METAR 2022/06/28 15:50 UTC NOAA

Campbeltown, United Kingdom (EGEC) 55-26-14N 005-41-11W
Jun 28, 2022 - 11:50 AM EDT / 2022.06.28 1550 UTC
Wind: from the SSE (160 degrees) at 33 MPH (29 KT):0
Visibility: greater than 7 mile(s):0
Sky conditions: mostly cloudy
Temperature: 59 F (15 C)
Dew Point: 55 F (13 C)
Relative Humidity: 87%
Pressure (altimeter): 29.59 in. Hg (1002 hPa)
ob: EGEC 281550Z 16029KT 9999 BKN008 15/13 Q1002
cycle: 16

Station Type Date Time Source
EGEC TAF UTC NOAA

Error!

Example: see airport list